Time;durP1;ratioP1;P1;durP2;ratioP2;P2;SDS_P1;SDS_P2;PMS_P1;PMS_P2;Temp;Humidity;BMP_temperature;BMP_pressure;BME280_temperature;BME280_humidity;BME280_pressure;Samples;Min_cycle;Max_cycle;Signal;HPM_P1;HPM_P2
2023/06/20 00:02:15;;;;;;;;;;;18.60;99.90;;;;;;5101903;28;19963;-42
2023/06/20 00:04:40;;;;;;;;;;;18.60;99.90;;;;;;5108995;28;19919;-46
2023/06/20 00:07:06;;;;;;;;;;;18.60;99.90;;;;;;5113974;28;19916;-45
2023/06/20 00:09:31;;;;;;;;;;;18.60;99.90;;;;;;5113222;28;19907;-43
2023/06/20 00:11:57;;;;;;;;;;;18.50;99.90;;;;;;5113587;28;19908;-43
2023/06/20 00:14:22;;;;;;;;;;;18.60;99.90;;;;;;5101921;28;19908;-44
2023/06/20 00:16:48;;;;;;;;;;;18.50;99.90;;;;;;5093204;28;19908;-44
2023/06/20 00:19:13;;;;;;;;;;;18.50;99.90;;;;;;5093383;28;19912;-47
2023/06/20 00:21:39;;;;;;;;;;;18.50;99.90;;;;;;5100754;28;20667;-43
2023/06/20 00:24:09;;;;;;;;;;;18.50;99.90;;;;;;5105631;28;19952;-43
2023/06/20 00:26:36;;;;;;;;;;;18.50;99.90;;;;;;5104264;28;19923;-43
2023/06/20 00:29:01;;;;;;;;;;;18.50;99.90;;;;;;5111410;28;20011;-44
2023/06/20 00:31:27;;;;;;;;;;;18.50;99.90;;;;;;5113616;28;19946;-43
2023/06/20 00:33:52;;;;;;;;;;;18.50;99.90;;;;;;5113255;28;19907;-43
2023/06/20 00:36:25;;;;;;;;;;;18.50;99.90;;;;;;5112550;28;20268;-43
2023/06/20 00:38:54;;;;;;;;;;;18.50;99.90;;;;;;5112708;28;19972;-43
2023/06/20 00:41:23;;;;;;;;;;;18.50;99.90;;;;;;5095100;28;20290;-42
2023/06/20 00:43:48;;;;;;;;;;;18.50;99.90;;;;;;5112231;28;19908;-44
2023/06/20 00:46:19;;;;;;;;;;;18.50;99.90;;;;;;5113155;28;19935;-42
2023/06/20 00:48:48;;;;;;;;;;;18.50;99.90;;;;;;5102506;28;20351;-43
2023/06/20 00:51:15;;;;;;;;;;;18.50;99.90;;;;;;5092334;28;19909;-46
2023/06/20 00:53:41;;;;;;;;;;;18.40;99.90;;;;;;5092495;28;19931;-49
2023/06/20 00:56:08;;;;;;;;;;;18.40;99.90;;;;;;5092908;28;19956;-42
2023/06/20 00:58:33;;;;;;;;;;;18.40;99.90;;;;;;5105074;28;19916;-43
2023/06/20 01:00:59;;;;;;;;;;;18.40;99.90;;;;;;5112813;28;19915;-42
2023/06/20 01:03:24;;;;;;;;;;;18.40;99.90;;;;;;5112940;28;19908;-42
2023/06/20 01:05:59;;;;;;;;;;;18.40;99.90;;;;;;5111895;28;19907;-42
2023/06/20 01:08:30;;;;;;;;;;;18.40;99.90;;;;;;5113260;28;20274;-44
2023/06/20 01:11:09;;;;;;;;;;;18.40;99.90;;;;;;5102882;28;19912;-45
2023/06/20 01:13:42;;;;;;;;;;;18.40;99.90;;;;;;5092682;28;20392;-43
2023/06/20 01:16:29;;;;;;;;;;;18.40;99.90;;;;;;5092626;28;19908;-45
2023/06/20 01:19:14;;;;;;;;;;;18.40;99.90;;;;;;5091336;28;19908;-43
2023/06/20 01:21:43;;;;;;;;;;;18.30;99.90;;;;;;5092375;28;20063;-43
2023/06/20 01:24:19;;;;;;;;;;;18.40;99.90;;;;;;5092280;28;20255;-42
2023/06/20 01:26:45;;;;;;;;;;;18.40;99.90;;;;;;5091102;28;19919;-43
2023/06/20 01:29:20;;;;;;;;;;;18.30;99.90;;;;;;5109996;28;19919;-44
2023/06/20 01:31:55;;;;;;;;;;;18.30;99.90;;;;;;5111206;28;19919;-43
2023/06/20 01:34:23;;;;;;;;;;;18.30;99.90;;;;;;5112508;28;19908;-42
2023/06/20 01:36:59;;;;;;;;;;;18.30;99.90;;;;;;5111971;28;20358;-43
2023/06/20 01:39:26;;;;;;;;;;;18.30;99.90;;;;;;5111759;28;19907;-43
2023/06/20 01:41:55;;;;;;;;;;;18.30;99.90;;;;;;5112408;28;20345;-42
2023/06/20 01:44:21;;;;;;;;;;;18.30;99.90;;;;;;5112590;28;19961;-44
2023/06/20 01:46:48;;;;;;;;;;;18.40;99.90;;;;;;5111440;28;19916;-43
2023/06/20 01:49:15;;;;;;;;;;;18.30;99.90;;;;;;5112532;28;20361;-44
2023/06/20 01:51:41;;;;;;;;;;;18.30;99.90;;;;;;5112257;28;19908;-46
2023/06/20 01:54:07;;;;;;;;;;;18.30;99.90;;;;;;5111646;28;20293;-44
2023/06/20 01:56:34;;;;;;;;;;;18.30;99.90;;;;;;5112423;28;19908;-41
2023/06/20 01:59:00;;;;;;;;;;;18.30;99.90;;;;;;5112172;28;19908;-43
2023/06/20 02:01:26;;;;;;;;;;;18.30;99.90;;;;;;5111202;28;19916;-43
2023/06/20 02:03:54;;;;;;;;;;;18.30;99.90;;;;;;5111979;28;19907;-42
2023/06/20 02:06:20;;;;;;;;;;;18.30;99.90;;;;;;5112230;28;20274;-43
2023/06/20 02:08:46;;;;;;;;;;;18.30;99.90;;;;;;5111093;28;19915;-43
2023/06/20 02:11:12;;;;;;;;;;;18.30;99.90;;;;;;5112280;28;19908;-43
2023/06/20 02:13:37;;;;;;;;;;;18.30;99.90;;;;;;5112178;28;19908;-43
2023/06/20 02:16:08;;;;;;;;;;;18.30;99.90;;;;;;5111095;28;19930;-44
2023/06/20 02:18:33;;;;;;;;;;;18.30;99.90;;;;;;5112157;28;19971;-43
2023/06/20 02:21:03;;;;;;;;;;;18.30;99.90;;;;;;5110576;28;20349;-42
2023/06/20 02:23:29;;;;;;;;;;;18.30;99.90;;;;;;5112061;28;20347;-43
2023/06/20 02:25:56;;;;;;;;;;;18.30;99.90;;;;;;5111779;28;20007;-42
2023/06/20 02:28:23;;;;;;;;;;;18.30;99.90;;;;;;5111332;28;19990;-45
2023/06/20 02:30:50;;;;;;;;;;;18.30;99.90;;;;;;5111633;28;20348;-43
2023/06/20 02:33:17;;;;;;;;;;;18.30;99.90;;;;;;5112146;28;19918;-44
2023/06/20 02:35:44;;;;;;;;;;;18.30;99.90;;;;;;5110851;28;19912;-43
2023/06/20 02:38:10;;;;;;;;;;;18.30;99.90;;;;;;5111806;28;19920;-42
2023/06/20 02:40:36;;;;;;;;;;;18.30;99.90;;;;;;5111988;28;19918;-44
2023/06/20 02:43:02;;;;;;;;;;;18.30;99.90;;;;;;5110968;28;19912;-44
2023/06/20 02:45:28;;;;;;;;;;;18.30;99.90;;;;;;5111882;28;19908;-44
2023/06/20 02:48:12;;;;;;;;;;;18.30;99.90;;;;;;5114761;28;19920;-43
2023/06/20 02:51:04;;;;;;;;;;;18.30;99.90;;;;;;5104370;28;19912;-42
2023/06/20 02:53:33;;;;;;;;;;;18.30;99.90;;;;;;5092736;28;20308;-42
2023/06/20 02:56:01;;;;;;;;;;;18.30;99.90;;;;;;5094625;28;19908;-45
2023/06/20 02:58:29;;;;;;;;;;;18.30;99.90;;;;;;5094056;28;20312;-42
2023/06/20 03:00:57;;;;;;;;;;;18.30;99.90;;;;;;5094695;28;19982;-42
2023/06/20 03:03:27;;;;;;;;;;;18.30;99.90;;;;;;5094181;28;19908;-43
2023/06/20 03:05:56;;;;;;;;;;;18.30;99.90;;;;;;5094529;28;19908;-44
2023/06/20 03:08:23;;;;;;;;;;;18.30;99.90;;;;;;5094813;28;20308;-42
2023/06/20 03:10:49;;;;;;;;;;;18.30;99.90;;;;;;5093532;28;19961;-43
2023/06/20 03:13:15;;;;;;;;;;;18.30;99.90;;;;;;5094698;28;19912;-44
2023/06/20 03:15:41;;;;;;;;;;;18.30;99.90;;;;;;5094369;28;19909;-46
2023/06/20 03:18:07;;;;;;;;;;;18.30;99.90;;;;;;5094050;28;19961;-43
2023/06/20 03:20:33;;;;;;;;;;;18.30;99.90;;;;;;5103467;28;19912;-44
2023/06/20 03:22:59;;;;;;;;;;;18.30;99.90;;;;;;5114410;28;19911;-43
2023/06/20 03:25:24;;;;;;;;;;;18.30;99.90;;;;;;5114123;28;19908;-43
2023/06/20 03:27:49;;;;;;;;;;;18.30;99.90;;;;;;5114414;28;19915;-43
2023/06/20 03:30:15;;;;;;;;;;;18.30;99.90;;;;;;5114878;28;19919;-44
2023/06/20 03:32:41;;;;;;;;;;;18.30;99.90;;;;;;5113794;28;20417;-44
2023/06/20 03:35:07;;;;;;;;;;;18.30;99.90;;;;;;5114749;28;19915;-42
2023/06/20 03:37:32;;;;;;;;;;;18.30;99.90;;;;;;5114291;28;19969;-43
2023/06/20 03:40:00;;;;;;;;;;;18.30;99.90;;;;;;5112830;28;20163;-43
2023/06/20 03:42:25;;;;;;;;;;;18.30;99.90;;;;;;5114456;28;19955;-44
2023/06/20 03:44:51;;;;;;;;;;;18.30;99.90;;;;;;5114322;28;19915;-44
2023/06/20 03:47:16;;;;;;;;;;;18.30;99.90;;;;;;5113675;28;19923;-45
2023/06/20 03:49:42;;;;;;;;;;;18.40;99.90;;;;;;5113874;28;19912;-45
2023/06/20 03:52:07;;;;;;;;;;;18.40;99.90;;;;;;5114125;28;19912;-43
2023/06/20 03:54:34;;;;;;;;;;;18.40;99.90;;;;;;5113545;28;19908;-44
2023/06/20 03:57:03;;;;;;;;;;;18.40;99.90;;;;;;5113848;28;19959;-43
2023/06/20 03:59:28;;;;;;;;;;;18.40;99.90;;;;;;5113553;28;19921;-44
2023/06/20 04:01:54;;;;;;;;;;;18.40;99.90;;;;;;5113889;28;20013;-45
2023/06/20 04:04:19;;;;;;;;;;;18.40;99.90;;;;;;5114177;28;19908;-42
2023/06/20 04:06:49;;;;;;;;;;;18.40;99.90;;;;;;5112735;28;19984;-42
2023/06/20 04:09:17;;;;;;;;;;;18.40;99.90;;;;;;5114105;28;19943;-44
2023/06/20 04:11:43;;;;;;;;;;;18.40;99.90;;;;;;5113619;28;19911;-44
2023/06/20 04:14:09;;;;;;;;;;;18.40;99.90;;;;;;5113336;28;19908;-42
2023/06/20 04:16:34;;;;;;;;;;;18.40;99.90;;;;;;5113976;28;19908;-44
2023/06/20 04:19:00;;;;;;;;;;;18.40;99.90;;;;;;5113646;28;19918;-43
2023/06/20 04:21:25;;;;;;;;;;;18.40;99.90;;;;;;5112046;28;19998;-45
2023/06/20 04:23:51;;;;;;;;;;;18.50;99.90;;;;;;5113182;28;19945;-43
2023/06/20 04:26:16;;;;;;;;;;;18.40;99.90;;;;;;5113403;28;20007;-43
2023/06/20 04:28:42;;;;;;;;;;;18.50;99.90;;;;;;5112676;28;20301;-44
2023/06/20 04:31:08;;;;;;;;;;;18.50;99.90;;;;;;5113742;28;19908;-44
2023/06/20 04:33:33;;;;;;;;;;;18.50;99.90;;;;;;5113640;28;19922;-43
2023/06/20 04:35:59;;;;;;;;;;;18.50;99.90;;;;;;5112368;28;19908;-44
2023/06/20 04:38:24;;;;;;;;;;;18.60;99.90;;;;;;5113046;28;19923;-44
2023/06/20 04:40:50;;;;;;;;;;;18.60;99.90;;;;;;5113206;28;19912;-42
2023/06/20 04:43:15;;;;;;;;;;;18.60;99.90;;;;;;5112412;28;19988;-43
2023/06/20 04:45:41;;;;;;;;;;;18.60;99.90;;;;;;5113213;28;19918;-43
2023/06/20 04:48:06;;;;;;;;;;;18.70;99.90;;;;;;5113364;28;19955;-44
2023/06/20 04:50:32;;;;;;;;;;;18.70;99.90;;;;;;5112359;28;19908;-44
2023/06/20 04:52:57;;;;;;;;;;;18.80;99.90;;;;;;5112932;28;19908;-45
2023/06/20 04:55:23;;;;;;;;;;;18.80;99.90;;;;;;5113102;28;19931;-44
2023/06/20 04:57:48;;;;;;;;;;;18.90;99.90;;;;;;5112103;28;20006;-45
2023/06/20 05:00:15;;;;;;;;;;;18.90;99.90;;;;;;5113140;28;20358;-43
2023/06/20 05:02:42;;;;;;;;;;;19.00;99.90;;;;;;5112488;28;19915;-51
2023/06/20 05:05:10;;;;;;;;;;;19.00;99.90;;;;;;5113066;28;19908;-44
2023/06/20 05:07:36;;;;;;;;;;;19.10;99.90;;;;;;5112935;28;20335;-45
2023/06/20 05:10:02;;;;;;;;;;;19.20;99.90;;;;;;5111667;28;20027;-43
2023/06/20 05:12:28;;;;;;;;;;;19.20;99.90;;;;;;5110922;28;19908;-45
2023/06/20 05:14:53;;;;;;;;;;;19.30;99.90;;;;;;5104972;28;20362;-43
2023/06/20 05:17:19;;;;;;;;;;;19.30;99.90;;;;;;5095907;28;19908;-45
2023/06/20 05:19:44;;;;;;;;;;;19.40;99.90;;;;;;5092086;28;19965;-43
2023/06/20 05:22:10;;;;;;;;;;;19.50;99.90;;;;;;5092270;28;19914;-44
2023/06/20 05:24:35;;;;;;;;;;;19.50;99.90;;;;;;5091714;28;19908;-42
2023/06/20 05:27:00;;;;;;;;;;;19.50;99.90;;;;;;5092084;28;20366;-42
2023/06/20 05:29:26;;;;;;;;;;;19.60;99.90;;;;;;5094284;28;20032;-47
2023/06/20 05:31:52;;;;;;;;;;;19.60;99.90;;;;;;5101333;28;19920;-42
2023/06/20 05:34:17;;;;;;;;;;;19.60;99.90;;;;;;5095308;28;19912;-44
2023/06/20 05:36:43;;;;;;;;;;;19.70;99.90;;;;;;5107160;28;19915;-44
2023/06/20 05:39:09;;;;;;;;;;;19.70;99.90;;;;;;5101322;28;19912;-44
2023/06/20 05:41:35;;;;;;;;;;;19.80;99.90;;;;;;5087208;28;19916;-43
2023/06/20 05:44:01;;;;;;;;;;;19.80;99.90;;;;;;5104247;28;20064;-44
2023/06/20 05:46:26;;;;;;;;;;;19.80;99.90;;;;;;5103634;28;20010;-43
2023/06/20 05:48:52;;;;;;;;;;;19.90;99.90;;;;;;5111090;28;19919;-46
2023/06/20 05:51:18;;;;;;;;;;;20.00;99.90;;;;;;5112335;28;20346;-44
2023/06/20 05:53:43;;;;;;;;;;;20.00;99.90;;;;;;5111046;28;19912;-44
2023/06/20 05:56:09;;;;;;;;;;;20.10;99.90;;;;;;5111407;28;19911;-44
2023/06/20 05:58:36;;;;;;;;;;;20.10;99.90;;;;;;5111459;28;19918;-44
2023/06/20 06:01:01;;;;;;;;;;;20.20;99.90;;;;;;5104128;28;19955;-43
2023/06/20 06:03:27;;;;;;;;;;;20.30;99.90;;;;;;5107075;28;19943;-44
2023/06/20 06:05:52;;;;;;;;;;;20.30;99.90;;;;;;5110694;28;19918;-44
2023/06/20 06:08:19;;;;;;;;;;;20.30;99.90;;;;;;5111283;28;19915;-45
2023/06/20 06:10:45;;;;;;;;;;;20.40;99.90;;;;;;5111652;28;19938;-44
2023/06/20 06:13:10;;;;;;;;;;;20.30;99.90;;;;;;5111266;28;19943;-44
2023/06/20 06:15:36;;;;;;;;;;;20.40;99.90;;;;;;5110818;28;20435;-44
2023/06/20 06:18:03;;;;;;;;;;;20.40;99.90;;;;;;5111332;28;19916;-44
2023/06/20 06:20:29;;;;;;;;;;;20.40;99.90;;;;;;5110598;28;20364;-44
2023/06/20 06:22:55;;;;;;;;;;;20.50;99.90;;;;;;5114946;28;19955;-45
2023/06/20 06:25:20;;;;;;;;;;;20.50;99.90;;;;;;5115291;28;19911;-45
2023/06/20 06:27:46;;;;;;;;;;;20.60;99.90;;;;;;5114370;28;19928;-44
2023/06/20 06:30:14;;;;;;;;;;;20.70;99.90;;;;;;5115597;28;19911;-43
2023/06/20 06:32:40;;;;;;;;;;;20.70;99.90;;;;;;5116006;28;19912;-44
2023/06/20 06:35:07;;;;;;;;;;;20.80;99.90;;;;;;5114508;28;20431;-45
2023/06/20 06:37:33;;;;;;;;;;;20.80;99.90;;;;;;5114775;28;19927;-44
2023/06/20 06:39:59;;;;;;;;;;;20.80;99.90;;;;;;5113111;28;20027;-45
2023/06/20 06:42:25;;;;;;;;;;;20.90;99.90;;;;;;5112804;28;20281;-44
2023/06/20 06:44:50;;;;;;;;;;;20.90;99.90;;;;;;5109607;28;19914;-45
2023/06/20 06:47:16;;;;;;;;;;;21.00;99.90;;;;;;5099305;28;19920;-45
2023/06/20 06:49:41;;;;;;;;;;;21.00;99.90;;;;;;5113816;28;19919;-49
2023/06/20 06:52:08;;;;;;;;;;;21.10;99.90;;;;;;5114639;28;20011;-47
2023/06/20 06:54:33;;;;;;;;;;;21.10;99.90;;;;;;5113775;28;19918;-43
2023/06/20 06:56:59;;;;;;;;;;;21.10;99.90;;;;;;5113787;28;19908;-45
2023/06/20 06:59:24;;;;;;;;;;;21.10;99.90;;;;;;5114438;28;19954;-46
2023/06/20 07:01:51;;;;;;;;;;;21.30;99.90;;;;;;5114651;28;19919;-44
2023/06/20 07:04:17;;;;;;;;;;;21.30;99.90;;;;;;5099817;28;19916;-45
2023/06/20 07:06:42;;;;;;;;;;;21.40;99.90;;;;;;5094714;28;19923;-44
2023/06/20 07:09:08;;;;;;;;;;;21.40;99.90;;;;;;5111285;28;20003;-44
2023/06/20 07:11:33;;;;;;;;;;;21.50;99.90;;;;;;5093997;28;20425;-45
2023/06/20 07:13:59;;;;;;;;;;;21.60;99.90;;;;;;5094956;28;19911;-42
2023/06/20 07:16:25;;;;;;;;;;;21.60;99.90;;;;;;5108462;28;19959;-45
2023/06/20 07:18:51;;;;;;;;;;;21.70;99.90;;;;;;5111689;28;19915;-45
2023/06/20 07:21:17;;;;;;;;;;;21.70;99.90;;;;;;5093004;28;19989;-45
2023/06/20 07:23:42;;;;;;;;;;;21.80;99.90;;;;;;5108250;28;20396;-44
2023/06/20 07:26:08;;;;;;;;;;;21.80;99.90;;;;;;5114308;28;19915;-43
2023/06/20 07:28:34;;;;;;;;;;;21.80;99.90;;;;;;5113554;28;20461;-44
2023/06/20 07:30:59;;;;;;;;;;;21.80;99.90;;;;;;5113423;28;20050;-44
2023/06/20 07:33:24;;;;;;;;;;;21.80;99.90;;;;;;5098360;28;19912;-43
2023/06/20 07:35:50;;;;;;;;;;;21.80;99.90;;;;;;5109834;28;19908;-44
2023/06/20 07:38:15;;;;;;;;;;;21.80;99.90;;;;;;5113666;28;19966;-45
2023/06/20 07:40:41;;;;;;;;;;;21.80;99.90;;;;;;5105339;28;19935;-46
2023/06/20 07:43:07;;;;;;;;;;;21.80;99.90;;;;;;5094333;28;20003;-44
2023/06/20 07:45:33;;;;;;;;;;;21.80;99.90;;;;;;5093072;28;19907;-44
2023/06/20 07:47:59;;;;;;;;;;;21.90;99.90;;;;;;5093556;28;19916;-45
2023/06/20 07:50:24;;;;;;;;;;;21.90;99.90;;;;;;5094067;28;19909;-45
2023/06/20 07:52:50;;;;;;;;;;;21.90;99.90;;;;;;5093138;28;19930;-45
2023/06/20 07:55:15;;;;;;;;;;;22.00;99.90;;;;;;5093962;28;19944;-44
2023/06/20 07:57:41;;;;;;;;;;;22.00;99.90;;;;;;5093759;28;19908;-45
2023/06/20 08:00:11;;;;;;;;;;;22.00;99.90;;;;;;5098180;28;19916;-44
2023/06/20 08:02:36;;;;;;;;;;;22.00;99.90;;;;;;5113987;28;19912;-44
2023/06/20 08:05:03;;;;;;;;;;;22.00;99.90;;;;;;5113926;28;19908;-45
2023/06/20 08:07:29;;;;;;;;;;;22.00;99.90;;;;;;5113246;28;20266;-44
2023/06/20 08:09:54;;;;;;;;;;;21.90;99.90;;;;;;5113830;28;19915;-43
2023/06/20 08:12:20;;;;;;;;;;;21.90;99.90;;;;;;5114016;28;19976;-43
2023/06/20 08:14:45;;;;;;;;;;;21.90;99.90;;;;;;5101781;28;19915;-44
2023/06/20 08:17:13;;;;;;;;;;;22.00;99.90;;;;;;5109432;28;20354;-43
2023/06/20 08:19:39;;;;;;;;;;;22.00;99.90;;;;;;5100021;28;19934;-45
2023/06/20 08:22:05;;;;;;;;;;;22.00;99.90;;;;;;5108512;28;20358;-45
2023/06/20 08:24:30;;;;;;;;;;;22.10;99.90;;;;;;5112156;28;19911;-45
2023/06/20 08:26:56;;;;;;;;;;;22.20;99.90;;;;;;5095882;28;19947;-45
2023/06/20 08:29:21;;;;;;;;;;;22.40;99.90;;;;;;5110061;28;19918;-45
2023/06/20 08:31:47;;;;;;;;;;;22.50;99.90;;;;;;5098531;28;19916;-45
2023/06/20 08:34:12;;;;;;;;;;;22.80;99.90;;;;;;5109535;28;19912;-44
2023/06/20 08:36:38;;;;;;;;;;;23.10;99.90;;;;;;5109507;28;19939;-44
2023/06/20 08:39:04;;;;;;;;;;;23.20;99.90;;;;;;5098352;28;20267;-46
2023/06/20 08:41:30;;;;;;;;;;;23.30;99.90;;;;;;5093257;28;19908;-46
2023/06/20 08:43:55;;;;;;;;;;;23.40;99.90;;;;;;5092678;28;19962;-45
2023/06/20 08:46:24;;;;;;;;;;;23.50;99.90;;;;;;5093588;28;19995;-45
2023/06/20 08:48:50;;;;;;;;;;;23.70;99.90;;;;;;5103852;28;19912;-44
2023/06/20 08:51:18;;;;;;;;;;;23.80;99.90;;;;;;5113733;28;19965;-44
2023/06/20 08:53:45;;;;;;;;;;;23.80;99.90;;;;;;5106192;28;20365;-44
2023/06/20 08:56:10;;;;;;;;;;;23.90;99.90;;;;;;5108357;28;20006;-44
2023/06/20 08:58:36;;;;;;;;;;;24.00;99.90;;;;;;5106947;28;20003;-45
2023/06/20 09:01:01;;;;;;;;;;;24.00;99.90;;;;;;5112909;28;19948;-46
2023/06/20 09:03:28;;;;;;;;;;;24.00;99.90;;;;;;5112263;28;19950;-45
2023/06/20 09:05:53;;;;;;;;;;;24.00;99.90;;;;;;5112846;28;19964;-44
2023/06/20 09:08:19;;;;;;;;;;;24.00;99.90;;;;;;5113659;28;19919;-44
2023/06/20 09:10:44;;;;;;;;;;;24.10;99.90;;;;;;5111939;28;19953;-46
2023/06/20 09:13:10;;;;;;;;;;;24.20;99.90;;;;;;5108732;28;20233;-44
2023/06/20 09:15:38;;;;;;;;;;;24.50;99.90;;;;;;5111975;28;19912;-46
2023/06/20 09:18:03;;;;;;;;;;;24.60;99.90;;;;;;5111560;28;20331;-45
2023/06/20 09:20:29;;;;;;;;;;;24.70;99.90;;;;;;5108946;28;20014;-44
2023/06/20 09:22:55;;;;;;;;;;;24.70;99.90;;;;;;5108163;28;19914;-49
2023/06/20 09:25:22;;;;;;;;;;;24.60;99.90;;;;;;5112526;28;19908;-44
2023/06/20 09:27:48;;;;;;;;;;;24.70;99.90;;;;;;5112381;28;20357;-45
2023/06/20 09:30:13;;;;;;;;;;;24.90;99.90;;;;;;5111627;28;19908;-43
2023/06/20 09:32:40;;;;;;;;;;;25.20;99.90;;;;;;5111279;28;19908;-45
2023/06/20 09:35:06;;;;;;;;;;;25.40;99.90;;;;;;5098991;28;19916;-44
2023/06/20 09:37:42;;;;;;;;;;;25.50;99.90;;;;;;5108922;28;19920;-47
2023/06/20 09:40:09;;;;;;;;;;;25.60;99.90;;;;;;5111941;28;20285;-44
2023/06/20 09:42:36;;;;;;;;;;;25.60;99.90;;;;;;5112557;28;19996;-46
2023/06/20 09:45:01;;;;;;;;;;;25.60;99.90;;;;;;5099619;28;19924;-44
2023/06/20 09:47:27;;;;;;;;;;;25.70;99.90;;;;;;5110923;28;19924;-46
2023/06/20 09:49:57;;;;;;;;;;;25.70;99.90;;;;;;5105751;28;20439;-44
2023/06/20 09:52:25;;;;;;;;;;;25.80;99.90;;;;;;5104687;28;19955;-45
2023/06/20 09:54:55;;;;;;;;;;;25.90;99.90;;;;;;5105602;28;19915;-45
2023/06/20 09:57:21;;;;;;;;;;;26.10;99.90;;;;;;5115412;28;19912;-46
2023/06/20 09:59:49;;;;;;;;;;;26.20;99.90;;;;;;5111107;28;19911;-46
2023/06/20 10:02:17;;;;;;;;;;;26.30;99.90;;;;;;5106496;28;19986;-45
2023/06/20 10:04:43;;;;;;;;;;;26.40;99.90;;;;;;5114057;28;20019;-49
2023/06/20 10:07:11;;;;;;;;;;;26.50;99.90;;;;;;5115745;28;19927;-45
2023/06/20 10:09:37;;;;;;;;;;;26.50;99.90;;;;;;5115391;28;20320;-44
2023/06/20 10:12:04;;;;;;;;;;;26.60;99.90;;;;;;5114577;28;19908;-45
2023/06/20 10:14:30;;;;;;;;;;;26.60;99.40;;;;;;5104676;28;19919;-44
2023/06/20 10:17:04;;;;;;;;;;;26.70;99.50;;;;;;5111943;28;19916;-45
2023/06/20 10:19:43;;;;;;;;;;;26.80;99.40;;;;;;5115535;28;19912;-44
2023/06/20 10:22:10;;;;;;;;;;;26.90;99.50;;;;;;5096964;28;19915;-44
2023/06/20 10:24:38;;;;;;;;;;;27.00;99.10;;;;;;5109995;28;19920;-45
2023/06/20 10:27:04;;;;;;;;;;;27.10;98.70;;;;;;5108826;28;19923;-43
2023/06/20 10:29:38;;;;;;;;;;;27.10;98.50;;;;;;5110697;28;20259;-46
2023/06/20 10:32:09;;;;;;;;;;;27.30;99.00;;;;;;5111812;28;19939;-44
2023/06/20 10:34:40;;;;;;;;;;;27.40;98.40;;;;;;5109239;28;19970;-45
2023/06/20 10:37:16;;;;;;;;;;;27.50;98.50;;;;;;5099680;28;19920;-46
2023/06/20 10:39:57;;;;;;;;;;;27.60;97.80;;;;;;5096021;28;20003;-45
2023/06/20 10:42:34;;;;;;;;;;;27.70;98.60;;;;;;5096726;28;19916;-47
2023/06/20 10:45:16;;;;;;;;;;;27.80;97.80;;;;;;5097703;28;19912;-42
2023/06/20 10:47:41;;;;;;;;;;;27.90;98.00;;;;;;5095492;28;20018;-50
2023/06/20 10:50:07;;;;;;;;;;;28.00;97.60;;;;;;5097174;28;20012;-45
2023/06/20 10:52:35;;;;;;;;;;;28.10;97.50;;;;;;5097936;28;19912;-44
2023/06/20 10:55:01;;;;;;;;;;;28.20;97.70;;;;;;5102235;28;19915;-44
2023/06/20 10:57:28;;;;;;;;;;;28.40;96.80;;;;;;5096729;28;20269;-44
2023/06/20 10:59:53;;;;;;;;;;;28.50;97.20;;;;;;5106662;28;19916;-46
2023/06/20 11:02:19;;;;;;;;;;;28.50;95.90;;;;;;5109252;28;19981;-45
2023/06/20 11:04:47;;;;;;;;;;;28.60;96.10;;;;;;5101846;28;19919;-43
2023/06/20 11:07:12;;;;;;;;;;;28.70;97.10;;;;;;5099704;28;19927;-45
2023/06/20 11:09:39;;;;;;;;;;;28.80;95.70;;;;;;5105015;28;19912;-45
2023/06/20 11:12:07;;;;;;;;;;;29.00;96.40;;;;;;5100208;28;19965;-45
2023/06/20 11:14:33;;;;;;;;;;;29.00;95.50;;;;;;5097967;28;19965;-44
2023/06/20 11:16:58;;;;;;;;;;;28.70;94.30;;;;;;5110701;28;19916;-44
2023/06/20 11:19:27;;;;;;;;;;;28.60;94.70;;;;;;5114766;28;19912;-45
2023/06/20 11:21:53;;;;;;;;;;;28.60;95.20;;;;;;5111350;28;19912;-45
2023/06/20 11:24:19;;;;;;;;;;;28.60;95.10;;;;;;5094821;28;19908;-45
2023/06/20 11:26:44;;;;;;;;;;;28.70;94.90;;;;;;5094138;28;19919;-45
2023/06/20 11:29:10;;;;;;;;;;;28.70;95.20;;;;;;5099377;28;19911;-44
2023/06/20 11:31:35;;;;;;;;;;;28.80;95.00;;;;;;5105413;28;19908;-45
2023/06/20 11:34:04;;;;;;;;;;;28.80;94.20;;;;;;5094069;28;20320;-43
2023/06/20 11:36:31;;;;;;;;;;;28.90;94.30;;;;;;5103943;28;19916;-44
2023/06/20 11:38:58;;;;;;;;;;;29.00;94.60;;;;;;5114416;28;19928;-43
2023/06/20 11:41:33;;;;;;;;;;;29.10;94.40;;;;;;5115340;28;19908;-43
2023/06/20 11:43:58;;;;;;;;;;;29.20;94.40;;;;;;5105853;28;20597;-45
2023/06/20 11:46:24;;;;;;;;;;;29.20;93.10;;;;;;5094934;28;19935;-45
2023/06/20 11:48:50;;;;;;;;;;;29.20;92.70;;;;;;5094595;28;19915;-43
2023/06/20 11:51:18;;;;;;;;;;;29.20;93.40;;;;;;5095632;28;19912;-44
2023/06/20 11:53:44;;;;;;;;;;;29.20;92.50;;;;;;5094558;28;19920;-45
2023/06/20 11:56:10;;;;;;;;;;;29.40;92.80;;;;;;5098177;28;19912;-44
2023/06/20 11:58:40;;;;;;;;;;;29.50;93.70;;;;;;5094338;28;19912;-46
2023/06/20 12:01:16;;;;;;;;;;;29.60;93.60;;;;;;5103262;28;19965;-44
2023/06/20 12:03:43;;;;;;;;;;;29.70;93.10;;;;;;5109428;27;20315;-48
2023/06/20 12:06:27;;;;;;;;;;;29.70;92.10;;;;;;5111220;28;19916;-45
2023/06/20 12:08:54;;;;;;;;;;;29.70;92.30;;;;;;5113525;28;19927;-43
2023/06/20 12:11:19;;;;;;;;;;;29.80;93.00;;;;;;5113159;27;19914;-44
2023/06/20 12:13:45;;;;;;;;;;;29.80;92.70;;;;;;5113233;28;19908;-44
2023/06/20 12:16:10;;;;;;;;;;;29.90;91.70;;;;;;5113722;28;19961;-45
2023/06/20 12:18:36;;;;;;;;;;;30.10;92.10;;;;;;5112880;28;20281;-45
2023/06/20 12:21:01;;;;;;;;;;;30.10;92.60;;;;;;5098459;28;19915;-43
2023/06/20 12:23:27;;;;;;;;;;;30.10;91.80;;;;;;5113874;28;20579;-45
2023/06/20 12:25:53;;;;;;;;;;;30.00;91.70;;;;;;5112077;28;19912;-44
2023/06/20 12:28:19;;;;;;;;;;;29.80;91.60;;;;;;5113690;28;19916;-44
2023/06/20 12:30:44;;;;;;;;;;;29.80;90.80;;;;;;5112528;28;19980;-45
2023/06/20 12:33:10;;;;;;;;;;;29.80;91.50;;;;;;5112745;28;19915;-45
2023/06/20 12:35:36;;;;;;;;;;;29.80;90.40;;;;;;5112977;28;19924;-44
2023/06/20 12:38:02;;;;;;;;;;;29.70;90.90;;;;;;5100784;28;19924;-45
2023/06/20 12:40:27;;;;;;;;;;;29.70;91.40;;;;;;5112610;28;19916;-46
2023/06/20 12:42:53;;;;;;;;;;;29.50;91.00;;;;;;5112813;28;19914;-43
2023/06/20 12:45:18;;;;;;;;;;;29.40;91.20;;;;;;5113301;28;19919;-45
2023/06/20 12:47:44;;;;;;;;;;;29.40;91.70;;;;;;5112500;28;20358;-45
2023/06/20 12:50:09;;;;;;;;;;;29.70;91.50;;;;;;5112385;28;19915;-44
2023/06/20 12:52:35;;;;;;;;;;;29.80;90.90;;;;;;5113174;28;20016;-44
2023/06/20 12:55:00;;;;;;;;;;;29.80;91.20;;;;;;5111776;28;20010;-44
2023/06/20 12:57:27;;;;;;;;;;;29.70;91.00;;;;;;5112838;28;19919;-43
2023/06/20 12:59:52;;;;;;;;;;;29.50;91.20;;;;;;5111240;28;19907;-45
2023/06/20 13:02:20;;;;;;;;;;;29.40;91.10;;;;;;5096689;28;19923;-45
2023/06/20 13:04:46;;;;;;;;;;;29.20;91.10;;;;;;5093342;28;19917;-46
2023/06/20 13:07:14;;;;;;;;;;;29.20;91.30;;;;;;5095992;28;19932;-43
2023/06/20 13:09:40;;;;;;;;;;;29.20;91.30;;;;;;5096715;28;19912;-47
2023/06/20 13:12:05;;;;;;;;;;;29.30;91.10;;;;;;5097216;28;19918;-46
2023/06/20 13:14:31;;;;;;;;;;;29.30;91.60;;;;;;5098144;28;19919;-44
2023/06/20 13:16:58;;;;;;;;;;;29.30;91.60;;;;;;5095865;28;20374;-44
2023/06/20 13:19:24;;;;;;;;;;;29.30;91.60;;;;;;5110626;28;20308;-45
2023/06/20 13:21:49;;;;;;;;;;;29.70;92.90;;;;;;5102039;28;19912;-44
2023/06/20 13:24:15;;;;;;;;;;;30.40;91.80;;;;;;5110784;28;19938;-44
2023/06/20 13:26:40;;;;;;;;;;;30.70;91.10;;;;;;5110027;28;20010;-51
2023/06/20 13:29:06;;;;;;;;;;;30.60;90.20;;;;;;5109234;28;19908;-46
2023/06/20 13:31:32;;;;;;;;;;;30.50;90.30;;;;;;5099328;28;19934;-45
2023/06/20 13:33:58;;;;;;;;;;;30.30;90.40;;;;;;5091127;28;19916;-44
2023/06/20 13:36:26;;;;;;;;;;;30.20;90.30;;;;;;5101844;28;19918;-46
2023/06/20 13:38:52;;;;;;;;;;;30.10;90.60;;;;;;5093384;28;19920;-43
2023/06/20 13:41:18;;;;;;;;;;;30.10;90.70;;;;;;5111372;28;19915;-44
2023/06/20 13:43:43;;;;;;;;;;;30.10;90.40;;;;;;5101677;28;20337;-45
2023/06/20 13:46:09;;;;;;;;;;;30.10;91.00;;;;;;5091986;28;20491;-44
2023/06/20 13:48:34;;;;;;;;;;;30.60;91.70;;;;;;5091923;28;19969;-43
2023/06/20 13:51:00;;;;;;;;;;;31.00;90.80;;;;;;5095252;28;19923;-46
2023/06/20 13:53:26;;;;;;;;;;;31.60;90.20;;;;;;5112222;28;19912;-43
2023/06/20 13:55:52;;;;;;;;;;;31.50;89.10;;;;;;5112172;28;19908;-48
2023/06/20 13:58:17;;;;;;;;;;;31.30;87.70;;;;;;5111690;28;20384;-45
2023/06/20 14:00:43;;;;;;;;;;;31.10;88.30;;;;;;5111809;28;19986;-46
2023/06/20 14:03:08;;;;;;;;;;;31.20;89.10;;;;;;5108051;28;19908;-44
2023/06/20 14:05:34;;;;;;;;;;;31.80;88.70;;;;;;5110101;28;20358;-46
2023/06/20 14:07:59;;;;;;;;;;;32.40;87.80;;;;;;5109979;28;20343;-44
2023/06/20 14:10:25;;;;;;;;;;;32.90;87.30;;;;;;5111346;28;19915;-44
2023/06/20 14:12:51;;;;;;;;;;;33.20;84.00;;;;;;5109620;28;19915;-43
2023/06/20 14:15:17;;;;;;;;;;;33.10;83.10;;;;;;5102122;28;20353;-46